createdAt,value
2018-05-29T00:02:09.591Z,23.87
2018-05-29T00:04:44.623Z,23.85
2018-05-29T00:07:19.548Z,23.82
2018-05-29T00:09:54.477Z,23.80
2018-05-29T00:12:28.936Z,23.78
2018-05-29T00:15:03.802Z,23.79
2018-05-29T00:17:38.241Z,23.80
2018-05-29T00:20:12.688Z,23.81
2018-05-29T00:22:47.621Z,23.81
2018-05-29T00:25:22.858Z,23.81
2018-05-29T00:27:57.262Z,23.82
2018-05-29T00:30:32.250Z,23.85
2018-05-29T00:33:07.127Z,23.86
2018-05-29T00:35:41.879Z,23.83
2018-05-29T00:38:16.856Z,23.79
2018-05-29T00:40:51.902Z,23.77
2018-05-29T00:43:26.490Z,23.75
2018-05-29T00:46:01.202Z,23.75
2018-05-29T00:48:36.354Z,23.73
2018-05-29T00:51:11.286Z,23.65
2018-05-29T00:53:46.416Z,23.58
2018-05-29T00:56:21.624Z,23.55
2018-05-29T00:58:56.591Z,23.49
2018-05-29T01:01:31.620Z,23.44
2018-05-29T01:04:06.758Z,23.43
2018-05-29T01:06:42.326Z,23.42
2018-05-29T01:09:17.537Z,23.40
2018-05-29T01:11:52.530Z,23.38
2018-05-29T01:27:38.880Z,23.38
2018-05-29T01:30:13.477Z,23.36
2018-05-29T01:32:48.154Z,23.33
2018-05-29T01:35:22.959Z,23.29
2018-05-29T01:37:57.806Z,23.24
2018-05-29T01:40:32.543Z,23.20
2018-05-29T01:43:07.265Z,23.13
2018-05-29T01:45:41.950Z,23.06
2018-05-29T01:48:16.830Z,22.98
2018-05-29T01:50:51.671Z,22.88
2018-05-29T01:53:26.573Z,22.81
2018-05-29T01:56:01.334Z,22.78
2018-05-29T01:58:36.138Z,22.69
2018-05-29T02:01:10.970Z,22.59
2018-05-29T02:03:46.022Z,22.53
2018-05-29T02:06:21.001Z,22.47
2018-05-29T02:08:55.878Z,22.44
2018-05-29T02:11:30.054Z,22.36
2018-05-29T02:14:04.754Z,22.28
2018-05-29T02:16:39.762Z,22.23
2018-05-29T02:19:14.590Z,22.18
2018-05-29T02:21:49.434Z,22.10
2018-05-29T02:24:24.042Z,22.04
2018-05-29T02:26:58.849Z,22.01
2018-05-29T02:29:33.606Z,22.00
2018-05-29T02:32:08.434Z,21.97
2018-05-29T02:34:43.358Z,21.91
2018-05-29T02:37:17.986Z,21.85
2018-05-29T02:39:52.315Z,21.81
2018-05-29T02:42:27.239Z,21.77
2018-05-29T02:45:01.977Z,21.73
2018-05-29T02:47:36.506Z,21.70
2018-05-29T02:50:11.506Z,21.68
2018-05-29T02:52:46.223Z,21.65
2018-05-29T02:55:20.990Z,21.60
2018-05-29T02:57:55.817Z,21.55
2018-05-29T03:00:30.521Z,21.52
2018-05-29T03:03:05.270Z,21.49
2018-05-29T03:05:40.017Z,21.48
2018-05-29T03:08:14.878Z,21.48
2018-05-29T03:10:49.609Z,21.47
2018-05-29T03:13:24.477Z,21.42
2018-05-29T03:15:59.322Z,21.38
2018-05-29T03:18:34.265Z,21.35
2018-05-29T03:21:09.202Z,21.35
2018-05-29T03:23:44.646Z,21.34
2018-05-29T03:26:20.042Z,21.34
2018-05-29T03:28:54.681Z,21.36
2018-05-29T03:31:29.434Z,21.36
2018-05-29T03:34:04.265Z,21.33
2018-05-29T03:36:39.150Z,21.29
2018-05-29T03:39:13.955Z,21.25
2018-05-29T03:41:48.658Z,21.22
2018-05-29T03:44:23.322Z,21.19
2018-05-29T03:46:58.316Z,21.20
2018-05-29T03:49:33.117Z,21.22
2018-05-29T03:52:07.906Z,21.23
2018-05-29T03:54:42.540Z,21.24
2018-05-29T03:57:17.310Z,21.25
2018-05-29T03:59:52.023Z,21.24
2018-05-29T04:02:26.622Z,21.24
2018-05-29T04:05:01.376Z,21.26
2018-05-29T04:07:36.100Z,21.30
2018-05-29T04:10:10.809Z,21.33
2018-05-29T04:12:45.538Z,21.38
2018-05-29T04:15:20.442Z,21.40
2018-05-29T04:17:55.166Z,21.41
2018-05-29T04:20:30.174Z,21.44
2018-05-29T04:23:04.331Z,21.46
2018-05-29T04:25:39.406Z,21.48
2018-05-29T04:28:14.260Z,21.51
2018-05-29T04:30:48.742Z,21.58
2018-05-29T04:33:23.490Z,21.67
2018-05-29T04:35:58.339Z,21.78
2018-05-29T04:38:33.146Z,21.88
2018-05-29T04:41:08.033Z,21.96
2018-05-29T04:43:43.043Z,22.02
2018-05-29T04:46:18.181Z,22.07
2018-05-29T04:48:52.962Z,22.11
2018-05-29T04:51:27.880Z,22.15
2018-05-29T04:54:02.924Z,22.21
2018-05-29T04:56:37.326Z,22.28
2018-05-29T04:59:12.456Z,22.37
2018-05-29T05:01:47.396Z,22.48
2018-05-29T05:04:22.258Z,22.55
2018-05-29T05:06:56.936Z,22.62
2018-05-29T05:09:31.594Z,22.71
2018-05-29T05:12:06.036Z,22.81
2018-05-29T05:14:41.137Z,22.89
2018-05-29T05:17:15.758Z,22.92
2018-05-29T05:19:50.511Z,22.96
2018-05-29T05:22:25.318Z,23.00
2018-05-29T05:25:00.066Z,23.04
2018-05-29T05:27:34.809Z,23.10
2018-05-29T05:30:09.357Z,23.17
2018-05-29T05:32:44.095Z,23.23
2018-05-29T05:35:18.976Z,23.30
2018-05-29T05:37:53.698Z,23.41
2018-05-29T05:40:28.398Z,23.59
2018-05-29T05:43:03.206Z,23.79
2018-05-29T05:45:37.990Z,23.94
2018-05-29T05:48:13.100Z,24.05
2018-05-29T05:50:47.623Z,24.19
2018-05-29T05:53:22.258Z,24.39
2018-05-29T05:55:57.324Z,24.54
2018-05-29T05:58:32.172Z,24.67
2018-05-29T06:01:07.143Z,24.82
2018-05-29T06:03:41.914Z,24.90
2018-05-29T06:06:16.582Z,24.99
2018-05-29T06:08:51.670Z,25.07
2018-05-29T06:11:26.502Z,25.11
2018-05-29T06:14:01.334Z,25.20
2018-05-29T06:16:36.061Z,25.33
2018-05-29T06:19:10.811Z,25.40
2018-05-29T06:21:45.339Z,25.50
2018-05-29T06:24:20.584Z,25.53
2018-05-29T06:26:55.126Z,25.54
2018-05-29T06:29:30.130Z,25.61
2018-05-29T06:32:04.853Z,25.78
2018-05-29T06:34:39.675Z,26.05
2018-05-29T06:37:14.395Z,26.23
2018-05-29T06:39:49.045Z,26.34
2018-05-29T06:42:23.650Z,26.47
2018-05-29T06:44:58.579Z,26.63
2018-05-29T06:47:33.186Z,26.76
2018-05-29T06:50:08.007Z,26.86
2018-05-29T06:52:42.860Z,26.96
2018-05-29T06:55:17.824Z,27.10
2018-05-29T06:57:52.752Z,27.25
2018-05-29T07:00:27.693Z,27.35
2018-05-29T07:03:02.411Z,27.42
2018-05-29T07:05:38.620Z,27.48
2018-05-29T07:08:13.270Z,27.51
2018-05-29T07:10:47.854Z,27.48
2018-05-29T07:13:22.801Z,27.52
2018-05-29T07:15:57.785Z,27.67
2018-05-29T07:18:32.812Z,27.89
2018-05-29T07:21:07.858Z,28.15
2018-05-29T07:23:42.641Z,28.38
2018-05-29T07:26:17.479Z,28.53
2018-05-29T07:28:52.653Z,28.63
2018-05-29T07:31:27.510Z,28.68
2018-05-29T07:34:02.435Z,28.77
2018-05-29T07:36:37.249Z,28.90
2018-05-29T07:39:12.100Z,29.04
2018-05-29T07:41:46.798Z,29.19
2018-05-29T07:44:21.629Z,29.30
2018-05-29T07:46:56.547Z,29.38
2018-05-29T07:49:31.262Z,29.33
2018-05-29T07:52:05.908Z,29.34
2018-05-29T07:54:40.998Z,29.32
2018-05-29T07:57:15.703Z,29.27
2018-05-29T07:59:50.526Z,29.33
2018-05-29T08:02:25.481Z,29.44
2018-05-29T08:05:00.610Z,29.66
2018-05-29T08:07:35.421Z,29.80
2018-05-29T08:10:10.585Z,29.87
2018-05-29T08:12:45.526Z,30.07
2018-05-29T08:15:20.042Z,30.28
2018-05-29T08:17:54.986Z,30.50
2018-05-29T08:20:30.001Z,30.78
2018-05-29T08:23:04.909Z,30.97
2018-05-29T08:25:39.635Z,31.06
2018-05-29T08:28:14.527Z,31.08
2018-05-29T08:30:49.252Z,31.12
2018-05-29T08:33:24.106Z,31.12
2018-05-29T08:35:58.842Z,31.00
2018-05-29T08:38:33.918Z,30.94
2018-05-29T08:41:08.730Z,30.89
2018-05-29T08:43:43.582Z,30.91
2018-05-29T08:46:18.566Z,30.95
2018-05-29T08:48:53.386Z,31.07
2018-05-29T08:51:28.098Z,31.26
2018-05-29T08:54:02.975Z,31.53
2018-05-29T08:56:37.783Z,31.55
2018-05-29T08:59:12.687Z,31.38
2018-05-29T09:01:47.390Z,31.37
2018-05-29T09:04:22.269Z,31.32
2018-05-29T09:06:56.942Z,31.41
2018-05-29T09:09:31.577Z,31.40
2018-05-29T09:12:06.387Z,31.45
2018-05-29T09:14:41.272Z,31.52
2018-05-29T09:17:16.064Z,31.73
2018-05-29T09:19:50.916Z,31.94
2018-05-29T09:22:25.935Z,31.92
2018-05-29T09:25:00.746Z,32.00
2018-05-29T09:27:35.462Z,32.24
2018-05-29T09:30:10.190Z,32.19
2018-05-29T09:32:45.081Z,32.04
2018-05-29T09:35:20.002Z,31.97
2018-05-29T09:37:55.023Z,32.05
2018-05-29T09:40:29.967Z,32.23
2018-05-29T09:43:04.778Z,32.36
2018-05-29T09:45:39.681Z,32.35
2018-05-29T09:48:14.407Z,32.32
2018-05-29T09:50:49.110Z,32.33
2018-05-29T09:53:23.873Z,32.43
2018-05-29T09:55:58.746Z,32.71
2018-05-29T09:58:33.578Z,32.78
2018-05-29T10:01:08.349Z,32.87
2018-05-29T10:03:43.134Z,32.83
2018-05-29T10:06:17.970Z,32.74
2018-05-29T10:08:52.718Z,32.90
2018-05-29T10:11:27.618Z,33.13
2018-05-29T10:14:02.551Z,33.23
2018-05-29T10:16:37.388Z,33.23
2018-05-29T10:19:12.221Z,33.27
2018-05-29T10:21:46.809Z,33.28
2018-05-29T10:24:21.550Z,33.28
2018-05-29T10:26:56.604Z,33.14
2018-05-29T10:29:31.982Z,33.11
2018-05-29T10:32:06.851Z,32.87
2018-05-29T10:34:41.709Z,32.80
2018-05-29T10:37:16.552Z,32.72
2018-05-29T10:39:51.384Z,32.77
2018-05-29T10:42:26.502Z,32.99
2018-05-29T10:45:01.309Z,33.21
2018-05-29T10:47:36.122Z,33.38
2018-05-29T10:50:10.704Z,33.45
2018-05-29T10:52:45.928Z,33.37
2018-05-29T10:55:20.946Z,33.35
2018-05-29T10:57:55.750Z,33.22
2018-05-29T11:00:30.601Z,33.23
2018-05-29T11:03:05.526Z,33.31
2018-05-29T11:05:40.409Z,33.24
2018-05-29T11:08:15.250Z,33.30
2018-05-29T11:10:50.162Z,33.48
2018-05-29T11:13:25.078Z,33.70
2018-05-29T11:15:59.907Z,33.88
2018-05-29T11:18:34.831Z,34.02
2018-05-29T11:21:09.769Z,34.12
2018-05-29T11:23:44.622Z,34.08
2018-05-29T11:26:19.521Z,34.03
2018-05-29T11:28:54.039Z,34.20
2018-05-29T11:31:29.122Z,34.11
2018-05-29T11:34:03.938Z,34.02
2018-05-29T11:36:38.249Z,34.14
2018-05-29T11:39:13.428Z,34.23
2018-05-29T11:41:48.408Z,33.98
2018-05-29T11:44:22.845Z,33.79
2018-05-29T11:46:58.094Z,33.49
2018-05-29T11:49:32.936Z,33.29
2018-05-29T11:52:07.910Z,33.13
2018-05-29T11:54:42.878Z,33.07
2018-05-29T11:57:17.686Z,33.04
2018-05-29T11:59:52.578Z,32.98
2018-05-29T12:02:27.517Z,32.93
2018-05-29T12:05:02.338Z,32.83
2018-05-29T12:07:37.001Z,32.86
2018-05-29T12:10:12.197Z,33.15
2018-05-29T12:12:46.571Z,33.47
2018-05-29T12:15:21.246Z,33.75
2018-05-29T12:17:56.054Z,33.93
2018-05-29T12:20:30.999Z,34.15
2018-05-29T12:23:05.478Z,34.29
2018-05-29T12:25:40.299Z,34.38
2018-05-29T12:28:15.137Z,34.22
2018-05-29T12:30:50.128Z,34.29
2018-05-29T12:33:24.866Z,34.43
2018-05-29T12:35:59.877Z,34.66
2018-05-29T12:38:34.538Z,34.69
2018-05-29T12:41:09.424Z,34.80
2018-05-29T12:43:44.203Z,34.73
2018-05-29T12:46:19.126Z,34.81
2018-05-29T12:48:53.978Z,35.01
2018-05-29T12:51:28.276Z,35.17
2018-05-29T12:54:03.255Z,35.21
2018-05-29T12:56:38.386Z,35.41
2018-05-29T12:59:13.337Z,35.57
2018-05-29T13:01:48.209Z,35.52
2018-05-29T13:04:23.089Z,35.43
2018-05-29T13:06:58.108Z,35.43
2018-05-29T13:09:32.926Z,35.46
2018-05-29T13:12:07.894Z,35.55
2018-05-29T13:14:42.601Z,35.28
2018-05-29T13:17:17.434Z,35.05
2018-05-29T13:19:52.542Z,34.91
2018-05-29T13:22:27.425Z,34.96
2018-05-29T13:25:02.326Z,34.86
2018-05-29T13:27:36.946Z,34.78
2018-05-29T13:30:11.541Z,34.80
2018-05-29T13:32:46.337Z,34.91
2018-05-29T13:35:20.959Z,34.72
2018-05-29T13:37:55.678Z,34.70
2018-05-29T13:40:30.226Z,34.68
2018-05-29T13:43:04.572Z,34.69
2018-05-29T13:45:39.559Z,34.60
2018-05-29T13:48:14.054Z,34.48
2018-05-29T13:50:48.767Z,34.53
2018-05-29T13:53:23.520Z,34.56
2018-05-29T13:55:58.244Z,34.52
2018-05-29T13:58:32.981Z,34.61
2018-05-29T14:01:07.798Z,34.77
2018-05-29T14:03:42.358Z,34.85
2018-05-29T14:06:17.467Z,34.71
2018-05-29T14:08:52.286Z,34.36
2018-05-29T14:11:27.030Z,34.14
2018-05-29T14:14:02.013Z,34.07
2018-05-29T14:16:36.918Z,34.10
2018-05-29T14:19:11.614Z,34.21
2018-05-29T14:21:46.590Z,34.24
2018-05-29T14:24:21.352Z,34.29
2018-05-29T14:26:56.419Z,34.35
2018-05-29T14:29:31.267Z,34.52
2018-05-29T14:32:06.206Z,34.58
2018-05-29T14:34:42.006Z,34.56
2018-05-29T14:37:17.114Z,34.59
2018-05-29T14:39:51.778Z,34.61
2018-05-29T14:42:26.714Z,34.83
2018-05-29T14:45:01.225Z,34.98
2018-05-29T14:47:36.161Z,35.07
2018-05-29T14:50:10.594Z,34.99
2018-05-29T14:52:45.504Z,34.89
2018-05-29T14:55:20.679Z,34.94
2018-05-29T14:57:55.204Z,35.13
2018-05-29T15:00:30.020Z,35.16
2018-05-29T15:03:04.578Z,35.20
2018-05-29T15:05:39.293Z,35.28
2018-05-29T15:08:13.972Z,35.19
2018-05-29T15:10:48.951Z,34.88
2018-05-29T15:13:23.871Z,34.73
2018-05-29T15:15:59.010Z,34.50
2018-05-29T15:18:33.935Z,34.27
2018-05-29T15:21:08.765Z,34.10
2018-05-29T15:23:43.578Z,33.99
2018-05-29T15:26:18.648Z,33.81
2018-05-29T15:28:53.590Z,33.62
2018-05-29T15:31:28.112Z,33.58
2018-05-29T15:34:02.762Z,33.52
2018-05-29T15:36:37.617Z,33.41
2018-05-29T15:39:12.245Z,33.21
2018-05-29T15:41:47.133Z,33.02
2018-05-29T15:44:22.046Z,32.94
2018-05-29T15:46:56.874Z,32.90
2018-05-29T15:49:31.594Z,32.82
2018-05-29T15:52:06.444Z,32.82
2018-05-29T15:54:41.071Z,32.81
2018-05-29T15:57:15.805Z,32.73
2018-05-29T15:59:50.642Z,32.71
2018-05-29T16:02:25.349Z,32.64
2018-05-29T16:05:00.746Z,32.57
2018-05-29T16:07:36.602Z,32.50
2018-05-29T16:10:11.393Z,32.50
2018-05-29T16:12:45.936Z,32.45
2018-05-29T16:15:20.926Z,32.41
2018-05-29T16:17:55.570Z,32.37
2018-05-29T16:20:30.590Z,32.33
2018-05-29T16:23:05.438Z,32.26
2018-05-29T16:25:40.474Z,32.21
2018-05-29T16:28:15.077Z,32.13
2018-05-29T16:30:50.327Z,32.07
2018-05-29T16:33:25.062Z,32.06
2018-05-29T16:35:59.779Z,32.03
2018-05-29T16:38:34.376Z,31.99
2018-05-29T16:41:09.393Z,31.99
2018-05-29T16:43:44.063Z,31.95
2018-05-29T16:46:18.866Z,31.95
2018-05-29T16:48:53.840Z,31.95
2018-05-29T16:51:28.569Z,31.89
2018-05-29T16:54:03.281Z,31.77
2018-05-29T16:56:38.034Z,31.70
2018-05-29T16:59:12.666Z,31.56
2018-05-29T17:01:47.393Z,31.45
2018-05-29T17:04:22.305Z,31.36
2018-05-29T17:06:57.198Z,31.29
2018-05-29T17:09:32.186Z,31.24
2018-05-29T17:12:07.033Z,31.20
2018-05-29T17:14:41.737Z,31.12
2018-05-29T17:17:16.466Z,31.03
2018-05-29T17:19:51.398Z,30.95
2018-05-29T17:22:26.270Z,30.78
2018-05-29T17:25:01.058Z,30.67
2018-05-29T17:27:36.002Z,30.36
2018-05-29T17:30:10.701Z,29.68
2018-05-29T17:32:45.386Z,28.86
2018-05-29T17:35:20.067Z,28.34
2018-05-29T17:37:54.827Z,28.00
2018-05-29T17:40:29.569Z,27.62
2018-05-29T17:43:04.370Z,27.17
2018-05-29T17:45:39.011Z,26.74
2018-05-29T17:48:14.054Z,26.57
2018-05-29T17:50:48.966Z,26.35
2018-05-29T17:53:23.770Z,26.20
2018-05-29T17:55:58.722Z,26.08
2018-05-29T17:58:33.449Z,25.94
2018-05-29T18:01:08.182Z,25.77
2018-05-29T18:03:42.710Z,25.72
2018-05-29T18:06:17.230Z,25.66
2018-05-29T18:08:52.074Z,25.46
2018-05-29T18:11:26.924Z,25.27
2018-05-29T18:14:01.696Z,25.20
2018-05-29T18:16:36.664Z,25.19
2018-05-29T18:19:11.130Z,25.18
2018-05-29T18:21:45.835Z,25.16
2018-05-29T18:24:20.633Z,25.20
2018-05-29T18:26:55.490Z,25.29
2018-05-29T18:29:30.996Z,25.38
2018-05-29T18:32:05.623Z,25.46
2018-05-29T18:34:40.682Z,25.54
2018-05-29T18:37:15.482Z,25.59
2018-05-29T18:39:50.329Z,25.59
2018-05-29T18:42:25.047Z,25.55
2018-05-29T18:44:59.798Z,25.61
2018-05-29T18:47:34.660Z,25.65
2018-05-29T18:50:09.485Z,25.68
2018-05-29T18:52:44.391Z,25.73
2018-05-29T18:55:19.073Z,25.79
2018-05-29T18:57:53.877Z,25.83
2018-05-29T19:00:28.493Z,25.87
2018-05-29T19:03:03.418Z,25.92
2018-05-29T19:05:38.354Z,25.94
2018-05-29T19:08:13.069Z,25.92
2018-05-29T19:10:47.837Z,25.96
2018-05-29T19:13:22.394Z,26.00
2018-05-29T19:15:57.463Z,26.07
2018-05-29T19:18:32.188Z,26.14
2018-05-29T19:21:07.119Z,26.18
2018-05-29T19:23:41.966Z,26.23
2018-05-29T19:26:17.105Z,26.29
2018-05-29T19:28:52.149Z,26.35
2018-05-29T19:31:27.278Z,26.41
2018-05-29T19:34:02.518Z,26.38
2018-05-29T19:36:37.546Z,26.24
2018-05-29T19:39:12.324Z,26.10
2018-05-29T19:41:47.142Z,26.11
2018-05-29T19:44:21.630Z,26.17
2018-05-29T19:46:56.616Z,26.23
2018-05-29T19:55:25.602Z,26.28
2018-05-29T19:58:00.754Z,26.13
2018-05-29T20:00:35.034Z,25.94
2018-05-29T20:03:09.798Z,25.73
2018-05-29T20:05:44.910Z,25.58
2018-05-29T20:08:19.921Z,25.47
2018-05-29T20:10:54.933Z,25.36
2018-05-29T20:13:29.711Z,25.25
2018-05-29T20:16:03.997Z,25.16
2018-05-29T20:18:39.100Z,25.10
2018-05-29T20:21:14.118Z,25.07
2018-05-29T20:23:49.046Z,25.09
2018-05-29T20:26:23.877Z,25.13
2018-05-29T20:28:58.895Z,25.16
2018-05-29T20:31:34.885Z,25.18
2018-05-29T20:34:10.161Z,25.15
2018-05-29T20:36:45.417Z,25.09
2018-05-29T20:39:21.439Z,25.01
2018-05-29T20:41:57.315Z,25.03
2018-05-29T20:44:32.923Z,25.17
2018-05-29T20:47:08.054Z,25.32
2018-05-29T20:49:43.401Z,25.39
2018-05-29T20:52:18.187Z,25.36
2018-05-29T20:54:52.651Z,25.23
2018-05-29T20:57:27.677Z,25.06
2018-05-29T21:00:02.485Z,24.85
2018-05-29T21:02:37.221Z,24.69
2018-05-29T21:05:12.237Z,24.55
2018-05-29T21:07:46.905Z,24.49
2018-05-29T21:10:21.873Z,24.51
2018-05-29T21:12:56.429Z,24.50
2018-05-29T21:15:31.710Z,24.48
2018-05-29T21:18:06.600Z,24.50
2018-05-29T21:20:41.344Z,24.52
2018-05-29T21:23:16.169Z,24.53
2018-05-29T21:25:51.288Z,24.54
2018-05-29T21:28:26.353Z,24.54
2018-05-29T21:31:01.441Z,24.59
2018-05-29T21:33:36.294Z,24.66
2018-05-29T21:36:11.399Z,24.65
2018-05-29T21:38:46.510Z,24.63
2018-05-29T21:41:21.545Z,24.63
2018-05-29T21:43:56.779Z,24.67
2018-05-29T21:46:31.845Z,24.65
2018-05-29T21:49:06.805Z,24.54
2018-05-29T21:51:42.189Z,24.18
2018-05-29T21:54:17.400Z,23.67
2018-05-29T21:56:52.572Z,23.27
2018-05-29T21:59:27.726Z,23.06
2018-05-29T22:02:03.806Z,22.90
2018-05-29T22:04:44.523Z,22.54
2018-05-29T22:07:19.034Z,22.06
2018-05-29T22:09:54.561Z,21.81
2018-05-29T22:12:29.801Z,21.71
2018-05-29T22:15:04.173Z,21.59
2018-05-29T22:17:38.797Z,21.58
2018-05-29T22:20:13.769Z,21.64
2018-05-29T22:22:49.108Z,21.65
2018-05-29T22:25:24.482Z,21.62
2018-05-29T22:27:59.715Z,21.55
2018-05-29T22:30:34.589Z,21.45
2018-05-29T22:33:09.417Z,21.36
2018-05-29T22:35:44.514Z,21.32
2018-05-29T22:38:19.549Z,21.36
2018-05-29T22:40:54.820Z,21.43
2018-05-29T22:43:29.889Z,21.54
2018-05-29T22:46:04.058Z,21.69
2018-05-29T22:48:39.293Z,21.84
2018-05-29T22:51:14.462Z,21.98
2018-05-29T22:53:49.455Z,22.10
2018-05-29T22:56:24.320Z,22.17
2018-05-29T22:58:59.753Z,22.21
2018-05-29T23:01:34.502Z,22.15
2018-05-29T23:04:09.469Z,21.88
2018-05-29T23:06:44.410Z,21.49
2018-05-29T23:09:19.200Z,21.22
2018-05-29T23:11:54.202Z,21.07
2018-05-29T23:14:29.233Z,20.94
2018-05-29T23:17:04.571Z,20.75
2018-05-29T23:19:39.545Z,20.64
2018-05-29T23:22:14.654Z,20.60
2018-05-29T23:24:49.997Z,20.60
2018-05-29T23:27:34.425Z,20.67
2018-05-29T23:30:09.486Z,20.74
2018-05-29T23:32:43.899Z,20.79
2018-05-29T23:35:18.946Z,20.82
2018-05-29T23:37:54.071Z,20.83
2018-05-29T23:40:29.002Z,20.79
2018-05-29T23:43:04.181Z,20.71
2018-05-29T23:45:39.381Z,20.63
2018-05-29T23:48:14.514Z,20.58
2018-05-29T23:50:49.461Z,20.57
2018-05-29T23:53:24.597Z,20.56
2018-05-29T23:55:59.698Z,20.58
2018-05-29T23:58:34.710Z,20.65
